Time;durP1;ratioP1;P1;durP2;ratioP2;P2;SDS_P1;SDS_P2;PMS_P1;PMS_P2;Temp;Humidity;BMP_temperature;BMP_pressure;BME280_temperature;BME280_humidity;BME280_pressure;Samples;Min_cycle;Max_cycle;Signal;HPM_P1;HPM_P2
2021/10/01 00:00:26;;;;;;;7.45;2.67;;;;;;;4.82;95.04;99259.19;5047045;28;20027;-63
2021/10/01 00:02:51;;;;;;;3.90;2.35;;;;;;;4.80;95.59;99250.47;5046963;28;20064;-63
2021/10/01 00:05:19;;;;;;;4.60;2.70;;;;;;;4.81;95.64;99252.22;5047041;28;20040;-63
2021/10/01 00:07:45;;;;;;;8.50;2.72;;;;;;;4.87;95.85;99242.72;5046968;28;20247;-63
2021/10/01 00:10:11;;;;;;;3.22;2.25;;;;;;;4.95;95.94;99245.44;5046842;28;20067;-63
2021/10/01 00:12:36;;;;;;;7.25;3.00;;;;;;;4.93;95.89;99241.97;5046734;28;20034;-63
2021/10/01 00:15:03;;;;;;;5.07;2.58;;;;;;;4.91;95.76;99243.66;5049210;28;20028;-63
2021/10/01 00:17:29;;;;;;;4.95;2.20;;;;;;;4.91;95.82;99241.94;5066209;28;20048;-63
2021/10/01 00:19:54;;;;;;;5.78;2.40;;;;;;;4.72;94.35;99233.84;5066210;28;20023;-63
2021/10/01 00:22:19;;;;;;;3.63;2.35;;;;;;;4.55;95.14;99232.75;5063217;28;20029;-63
2021/10/01 00:24:47;;;;;;;3.60;2.35;;;;;;;4.62;95.38;99234.59;5046635;28;20025;-63
2021/10/01 00:27:13;;;;;;;6.78;2.55;;;;;;;4.65;96.00;99224.22;5046579;28;20076;-63
2021/10/01 00:29:39;;;;;;;4.28;2.78;;;;;;;4.73;96.19;99227.78;5046421;28;20066;-63
2021/10/01 00:32:05;;;;;;;4.38;1.90;;;;;;;4.78;95.98;99236.53;5046489;28;20033;-63
2021/10/01 00:34:31;;;;;;;3.55;1.98;;;;;;;4.67;95.23;99227.69;5046525;28;20025;-63
2021/10/01 00:36:56;;;;;;;3.60;2.17;;;;;;;4.67;95.46;99228.56;5046443;28;20022;-63
2021/10/01 00:39:22;;;;;;;2.72;1.95;;;;;;;4.75;94.75;99226.06;5046398;28;20026;-63
2021/10/01 00:41:48;;;;;;;4.93;2.13;;;;;;;4.65;94.82;99219.00;5063272;28;20251;-64
2021/10/01 00:44:13;;;;;;;3.45;2.05;;;;;;;4.56;94.78;99227.56;5053680;28;20049;-64
2021/10/01 00:46:39;;;;;;;3.78;2.33;;;;;;;4.63;94.92;99215.47;5053405;28;20031;-64
2021/10/01 00:49:04;;;;;;;3.97;1.98;;;;;;;4.64;94.72;99217.22;5048025;28;20021;-64
2021/10/01 00:51:34;;;;;;;6.18;2.08;;;;;;;4.56;94.84;99211.03;5046108;28;20022;-64
2021/10/01 00:54:00;;;;;;;3.80;2.40;;;;;;;4.44;95.08;99212.59;5062049;28;20031;-64
2021/10/01 00:56:25;;;;;;;4.72;2.20;;;;;;;4.48;95.14;99206.59;5046806;28;20057;-64
2021/10/01 00:58:51;;;;;;;5.60;2.53;;;;;;;4.47;95.24;99204.84;5054229;28;20029;-64
2021/10/01 01:01:16;;;;;;;10.52;2.20;;;;;;;4.56;95.66;99208.44;5046071;28;20021;-64
2021/10/01 01:04:00;;;;;;;5.05;2.33;;;;;;;4.55;95.68;99212.75;5054000;28;20080;-63
2021/10/01 01:06:33;;;;;;;4.78;2.15;;;;;;;4.43;95.12;99207.38;5061948;28;20092;-63
2021/10/01 01:09:17;;;;;;;6.65;2.80;;;;;;;4.30;94.74;99206.34;5066314;28;20086;-63
2021/10/01 01:11:43;;;;;;;3.33;1.80;;;;;;;4.39;94.83;99201.25;5046902;28;20266;-63
2021/10/01 01:14:16;;;;;;;2.55;1.75;;;;;;;4.46;95.16;99191.78;5054253;28;20045;-63
2021/10/01 01:16:44;;;;;;;5.95;2.50;;;;;;;4.41;94.94;99193.47;5053070;28;20336;-63
2021/10/01 01:19:21;;;;;;;4.40;2.28;;;;;;;4.23;94.88;99183.66;5045991;28;20036;-63
2021/10/01 01:22:16;;;;;;;4.25;2.40;;;;;;;4.23;94.82;99186.28;5045647;28;20424;-63
2021/10/01 01:25:20;;;;;;;3.95;2.35;;;;;;;4.32;95.17;99183.81;5045557;28;20029;-63
2021/10/01 01:27:48;;;;;;;3.47;2.08;;;;;;;4.22;96.03;99181.03;5060928;28;20143;-63
2021/10/01 01:30:20;;;;;;;4.78;2.28;;;;;;;4.21;95.62;99180.16;5049666;28;20143;-63
2021/10/01 01:32:48;;;;;;;6.25;2.50;;;;;;;4.23;95.69;99182.78;5064513;28;20028;-63
2021/10/01 01:35:14;;;;;;;5.38;2.20;;;;;;;4.23;95.63;99181.06;5064748;28;20024;-63
2021/10/01 01:37:45;;;;;;;4.00;2.25;;;;;;;4.32;95.10;99172.50;5063368;28;20083;-63
2021/10/01 01:40:14;;;;;;;3.55;2.30;;;;;;;4.22;94.87;99176.72;5048291;28;20044;-63
2021/10/01 01:42:42;;;;;;;4.15;2.17;;;;;;;4.21;95.32;99174.09;5045215;28;20044;-63
2021/10/01 01:45:10;;;;;;;3.97;2.30;;;;;;;4.29;95.08;99172.44;5059190;28;20044;-63
2021/10/01 01:47:39;;;;;;;7.15;2.25;;;;;;;4.13;94.65;99170.47;5064298;28;20066;-63
2021/10/01 01:50:06;;;;;;;6.57;2.15;;;;;;;4.19;95.64;99166.25;5062991;28;20021;-63
2021/10/01 01:52:34;;;;;;;4.65;2.08;;;;;;;4.25;95.45;99162.84;5064403;28;20028;-63
2021/10/01 01:55:00;;;;;;;3.80;1.80;;;;;;;4.19;95.31;99166.25;5071578;28;20050;-63
2021/10/01 01:57:27;;;;;;;2.88;1.83;;;;;;;4.24;95.54;99159.34;5047628;28;20040;-63
2021/10/01 01:59:53;;;;;;;4.28;2.05;;;;;;;4.23;95.07;99162.81;5064323;28;20039;-63
2021/10/01 02:02:19;;;;;;;3.17;2.17;;;;;;;4.13;94.99;99165.28;5064010;28;20220;-63
2021/10/01 02:04:47;;;;;;;3.22;1.98;;;;;;;3.99;95.23;99159.00;5061714;28;20083;-63
2021/10/01 02:07:14;;;;;;;2.97;1.60;;;;;;;4.06;95.92;99148.69;5043604;28;20025;-63
2021/10/01 02:09:39;;;;;;;2.45;1.60;;;;;;;4.13;95.67;99154.84;5044196;28;20021;-63
2021/10/01 02:12:05;;;;;;;2.38;1.67;;;;;;;4.03;94.79;99153.84;5045854;28;20197;-63
2021/10/01 02:14:35;;;;;;;4.22;1.80;;;;;;;3.97;94.97;99147.66;5057066;28;20040;-63
2021/10/01 02:17:01;;;;;;;5.40;1.73;;;;;;;3.86;95.32;99144.91;5064111;28;20039;-63
2021/10/01 02:19:32;;;;;;;5.15;2.22;;;;;;;3.99;95.77;99146.84;5053195;28;20056;-63
2021/10/01 02:22:01;;;;;;;2.38;1.70;;;;;;;4.05;95.21;99139.09;5049837;28;20019;-63
2021/10/01 02:24:30;;;;;;;3.75;1.80;;;;;;;4.07;95.52;99134.81;5056852;28;20047;-63
2021/10/01 02:27:04;;;;;;;3.38;2.13;;;;;;;3.99;95.19;99130.34;5062601;28;20017;-63
2021/10/01 02:29:39;;;;;;;3.38;2.03;;;;;;;3.91;94.47;99130.25;5063806;28;20032;-63
2021/10/01 02:32:13;;;;;;;3.45;2.10;;;;;;;3.91;94.45;99132.84;5062202;28;20332;-63
2021/10/01 02:34:42;;;;;;;3.67;1.95;;;;;;;3.94;94.72;99127.69;5044608;28;20032;-63
2021/10/01 02:37:09;;;;;;;4.32;1.83;;;;;;;3.90;95.57;99120.66;5044430;28;20017;-63
2021/10/01 02:39:40;;;;;;;3.72;2.17;;;;;;;3.95;94.67;99107.69;5048016;28;20013;-63
2021/10/01 02:42:06;;;;;;;2.97;1.55;;;;;;;3.90;95.16;99110.25;5063663;28;20040;-63
2021/10/01 02:44:33;;;;;;;3.83;2.13;;;;;;;3.69;94.90;99109.94;5045344;28;20217;-63
2021/10/01 02:46:59;;;;;;;2.55;1.77;;;;;;;3.65;94.89;99113.34;5045268;28;20021;-63
2021/10/01 02:49:24;;;;;;;7.72;2.38;;;;;;;3.65;95.60;99108.16;5044075;28;20344;-63
2021/10/01 02:51:55;;;;;;;3.70;1.92;;;;;;;3.66;95.03;99106.41;5044182;28;20025;-63
2021/10/01 02:54:33;;;;;;;3.53;1.75;;;;;;;3.77;95.05;99108.31;5056808;28;20249;-63
2021/10/01 02:57:10;;;;;;;3.55;2.20;;;;;;;3.68;95.03;99108.19;5063193;28;20032;-63
2021/10/01 02:59:41;;;;;;;2.20;1.50;;;;;;;3.62;95.90;99108.09;5062053;28;20021;-63
2021/10/01 03:02:09;;;;;;;3.25;1.90;;;;;;;3.69;96.80;99107.34;5063318;28;20336;-63
2021/10/01 03:04:35;;;;;;;3.53;1.90;;;;;;;3.72;96.27;99104.78;5043865;28;20041;-63
2021/10/01 03:07:04;;;;;;;2.80;1.55;;;;;;;3.76;95.60;99096.16;5049025;28;20070;-63
2021/10/01 03:09:30;;;;;;;3.92;2.25;;;;;;;3.59;95.24;99100.25;5063274;28;20025;-63
2021/10/01 03:11:59;;;;;;;3.03;2.17;;;;;;;3.62;95.00;99092.47;5063185;28;20349;-63
2021/10/01 03:14:26;;;;;;;3.95;2.05;;;;;;;3.61;95.19;99085.50;5061709;28;20044;-63
2021/10/01 03:16:52;;;;;;;4.53;2.35;;;;;;;3.59;95.27;99089.84;5062955;28;20092;-63
2021/10/01 03:19:22;;;;;;;4.03;2.05;;;;;;;3.53;95.37;99083.66;5063165;28;20082;-63
2021/10/01 03:21:52;;;;;;;5.00;2.60;;;;;;;3.43;95.73;99090.44;5052306;28;20020;-63
2021/10/01 03:24:19;;;;;;;3.28;2.10;;;;;;;3.48;96.54;99086.19;5047807;28;20080;-63
2021/10/01 03:26:45;;;;;;;6.07;2.47;;;;;;;3.57;96.46;99083.72;5047757;28;20084;-63
2021/10/01 03:29:11;;;;;;;6.20;2.22;;;;;;;3.56;95.81;99076.78;5062598;28;20340;-63
2021/10/01 03:31:37;;;;;;;3.97;2.13;;;;;;;3.55;95.35;99075.00;5066798;28;20024;-63
2021/10/01 03:34:03;;;;;;;5.20;1.90;;;;;;;3.53;95.73;99087.13;5065774;28;20083;-63
2021/10/01 03:36:28;;;;;;;3.80;2.03;;;;;;;3.45;95.69;99082.66;5067005;28;20033;-63
2021/10/01 03:38:56;;;;;;;3.00;2.00;;;;;;;3.42;95.31;99078.28;5066731;28;20075;-63
2021/10/01 03:41:21;;;;;;;3.65;1.80;;;;;;;3.33;95.48;99083.34;5064537;28;20013;-63
2021/10/01 03:43:47;;;;;;;3.72;1.92;;;;;;;3.40;95.44;99080.00;5047378;28;20013;-63
2021/10/01 03:46:12;;;;;;;3.08;1.80;;;;;;;3.43;95.56;99079.16;5047504;28;20025;-63
2021/10/01 03:48:38;;;;;;;8.68;1.90;;;;;;;3.33;95.26;99078.16;5048507;28;20021;-63
2021/10/01 03:51:04;;;;;;;2.40;1.70;;;;;;;3.33;95.47;99072.06;5047332;28;20214;-63
2021/10/01 03:53:29;;;;;;;3.83;1.70;;;;;;;3.36;95.55;99069.50;5047590;28;20190;-63
2021/10/01 03:55:54;;;;;;;3.60;1.80;;;;;;;3.32;95.17;99071.19;5057274;28;20028;-63
2021/10/01 03:58:20;;;;;;;4.15;1.83;;;;;;;3.40;95.38;99069.59;5061818;28;20040;-63
2021/10/01 04:00:45;;;;;;;3.78;2.03;;;;;;;3.32;94.86;99065.97;5047062;28;20084;-63
2021/10/01 04:03:12;;;;;;;5.25;1.95;;;;;;;3.19;94.76;99057.94;5057270;28;20239;-63
2021/10/01 04:05:38;;;;;;;3.97;2.10;;;;;;;3.16;95.47;99058.78;5065273;28;20013;-63
2021/10/01 04:08:09;;;;;;;2.58;1.60;;;;;;;3.23;95.63;99054.56;5066500;28;20133;-63
2021/10/01 04:10:35;;;;;;;4.68;1.80;;;;;;;3.20;95.63;99047.56;5054456;28;20064;-63
2021/10/01 04:13:02;;;;;;;2.67;1.65;;;;;;;3.13;95.15;99053.53;5046332;28;20325;-63
2021/10/01 04:15:27;;;;;;;2.40;1.60;;;;;;;3.20;95.45;99050.16;5045911;28;20024;-63
2021/10/01 04:17:53;;;;;;;4.05;1.80;;;;;;;3.09;95.45;99051.72;5063922;28;20220;-63
2021/10/01 04:20:18;;;;;;;1.90;1.58;;;;;;;3.17;95.81;99044.94;5064884;28;20028;-63
2021/10/01 04:22:43;;;;;;;2.95;1.67;;;;;;;3.28;95.10;99048.56;5049282;28;20084;-63
2021/10/01 04:25:09;;;;;;;3.90;1.95;;;;;;;3.27;95.34;99052.03;5064138;28;20413;-63
2021/10/01 04:27:34;;;;;;;3.42;1.80;;;;;;;3.25;94.67;99048.53;5064928;28;20041;-63
2021/10/01 04:30:00;;;;;;;4.88;1.80;;;;;;;3.09;95.38;99045.66;5049435;28;20019;-63
2021/10/01 04:32:26;;;;;;;3.53;1.75;;;;;;;2.99;95.39;99052.44;5045030;28;20490;-63
2021/10/01 04:35:06;;;;;;;4.18;1.75;;;;;;;3.10;95.12;99047.41;5045352;28;20024;-63
2021/10/01 04:37:31;;;;;;;1.98;1.45;;;;;;;3.17;95.11;99047.53;5055497;28;20310;-63
2021/10/01 04:39:57;;;;;;;3.25;1.67;;;;;;;3.11;94.94;99047.44;5059975;28;20025;-63
2021/10/01 04:42:24;;;;;;;2.28;1.80;;;;;;;3.04;94.84;99045.56;5062792;28;20212;-63
2021/10/01 04:44:49;;;;;;;3.88;1.67;;;;;;;2.95;95.04;99048.03;5065169;28;20035;-63
2021/10/01 04:47:15;;;;;;;4.07;2.17;;;;;;;2.99;96.34;99038.53;5065117;28;20029;-63
2021/10/01 04:49:40;;;;;;;3.38;1.85;;;;;;;3.02;96.33;99039.47;5057115;28;20048;-63
2021/10/01 04:52:07;;;;;;;5.80;1.98;;;;;;;3.09;96.57;99046.53;5045073;28;20028;-63
2021/10/01 04:54:32;;;;;;;5.03;1.92;;;;;;;3.12;95.91;99041.38;5045308;28;20337;-63
2021/10/01 04:56:58;;;;;;;3.17;1.55;;;;;;;3.15;95.58;99036.22;5044966;28;20022;-63
2021/10/01 04:59:23;;;;;;;2.65;1.60;;;;;;;3.17;94.45;99044.94;5044973;28;20031;-63
2021/10/01 05:01:48;;;;;;;4.88;1.77;;;;;;;3.00;94.87;99040.31;5045090;28;20025;-63
2021/10/01 05:04:14;;;;;;;3.63;1.60;;;;;;;2.97;94.71;99030.72;5044826;28;20035;-63
2021/10/01 05:06:41;;;;;;;4.75;2.25;;;;;;;3.02;95.72;99034.28;5044925;28;20093;-63
2021/10/01 05:09:07;;;;;;;6.75;1.80;;;;;;;3.13;95.36;99032.72;5045057;28;20360;-63
2021/10/01 05:11:32;;;;;;;4.40;1.90;;;;;;;2.96;94.90;99034.19;5044754;28;20025;-63
2021/10/01 05:13:57;;;;;;;2.78;1.65;;;;;;;2.94;95.25;99033.25;5004382;28;1181262;-63
2021/10/01 05:16:23;;;;;;;8.60;1.70;;;;;;;3.03;95.99;99029.94;5045683;28;20036;-63
2021/10/01 05:18:48;;;;;;;4.10;2.28;;;;;;;3.08;95.77;99039.59;5045902;28;20021;-63
2021/10/01 05:21:14;;;;;;;3.28;1.58;;;;;;;3.10;94.77;99037.88;5064694;28;20091;-63
2021/10/01 05:23:39;;;;;;;3.90;1.88;;;;;;;2.99;94.51;99042.03;5068177;28;20024;-63
2021/10/01 05:26:04;;;;;;;6.18;2.40;;;;;;;2.97;95.00;99041.13;5085460;28;20024;-63
2021/10/01 05:28:30;;;;;;;5.90;2.45;;;;;;;2.97;95.14;99045.47;5077865;28;20028;-63
2021/10/01 05:30:55;;;;;;;3.47;2.22;;;;;;;3.04;94.58;99045.56;5065408;28;20016;-63
2021/10/01 05:33:21;;;;;;;4.43;2.17;;;;;;;3.00;94.43;99048.97;5065349;28;20264;-63
2021/10/01 05:35:47;;;;;;;2.45;1.90;;;;;;;3.02;94.65;99044.69;5065269;28;20089;-63
2021/10/01 05:38:14;;;;;;;4.20;1.85;;;;;;;2.88;94.86;99035.75;5082447;28;20020;-63
2021/10/01 05:40:40;;;;;;;9.90;2.35;;;;;;;2.91;95.52;99047.97;5085128;28;20338;-63
2021/10/01 05:43:06;;;;;;;3.15;1.83;;;;;;;3.02;95.57;99039.47;5084421;28;20028;-63
2021/10/01 05:45:33;;;;;;;3.38;2.17;;;;;;;3.10;94.87;99047.41;5085109;28;20188;-63
2021/10/01 05:47:58;;;;;;;3.10;1.92;;;;;;;3.09;95.01;99041.34;5085339;28;20074;-63
2021/10/01 05:50:27;;;;;;;3.92;2.08;;;;;;;2.99;94.61;99044.63;5085031;28;20307;-63
2021/10/01 05:52:56;;;;;;;5.82;2.03;;;;;;;2.95;94.89;99037.63;5081259;28;20019;-63
2021/10/01 05:55:22;;;;;;;2.90;1.88;;;;;;;3.00;95.05;99038.56;5076218;28;20024;-63
2021/10/01 05:57:47;;;;;;;3.38;1.90;;;;;;;3.21;95.06;99041.53;5071991;28;20251;-63
2021/10/01 06:00:14;;;;;;;4.10;1.67;;;;;;;3.43;94.11;99034.94;5064794;28;20036;-63
2021/10/01 06:02:41;;;;;;;3.47;1.63;;;;;;;3.58;94.16;99036.00;5082415;28;20220;-63
2021/10/01 06:05:07;;;;;;;5.32;1.90;;;;;;;3.74;93.76;99035.38;5084709;28;20047;-63
2021/10/01 06:07:33;;;;;;;3.63;1.77;;;;;;;3.94;93.02;99033.03;5084720;28;20032;-63
2021/10/01 06:09:58;;;;;;;2.58;1.80;;;;;;;4.08;92.68;99027.16;5076955;28;20016;-63
2021/10/01 06:12:23;;;;;;;3.75;1.67;;;;;;;4.35;91.73;99031.81;5064440;28;20028;-63
2021/10/01 06:14:49;;;;;;;4.40;1.88;;;;;;;4.47;91.71;99022.41;5064625;28;20033;-63
2021/10/01 06:17:15;;;;;;;3.30;1.80;;;;;;;4.91;90.47;99025.47;5064499;28;20028;-63
2021/10/01 06:19:43;;;;;;;2.00;1.45;;;;;;;5.48;88.41;99025.03;5064482;28;20021;-63
2021/10/01 06:22:10;;;;;;;6.40;1.73;;;;;;;5.84;85.71;99017.47;5064415;28;20033;-63
2021/10/01 06:24:37;;;;;;;4.25;1.65;;;;;;;6.17;84.32;99017.63;5067596;28;20024;-63
2021/10/01 06:27:02;;;;;;;4.15;1.42;;;;;;;6.38;83.44;99017.69;5073136;28;20021;-63
2021/10/01 06:29:28;;;;;;;2.53;1.40;;;;;;;6.76;82.90;99016.03;5073048;28;20024;-63
2021/10/01 06:31:54;;;;;;;2.97;1.50;;;;;;;7.46;81.11;99015.19;5084295;28;20016;-63
2021/10/01 06:34:20;;;;;;;1.60;1.38;;;;;;;7.90;78.90;99007.25;5064854;28;20027;-63
2021/10/01 06:36:46;;;;;;;4.15;1.65;;;;;;;7.76;79.59;99009.94;5064183;28;20025;-63
2021/10/01 06:39:12;;;;;;;2.55;1.38;;;;;;;8.31;78.04;99013.25;5064160;28;20024;-63
2021/10/01 06:41:38;;;;;;;3.13;1.50;;;;;;;8.67;77.48;99027.03;5073064;28;20102;-63
2021/10/01 06:44:06;;;;;;;5.00;1.60;;;;;;;9.25;75.58;99017.03;5084176;28;20043;-64
2021/10/01 06:46:48;;;;;;;3.10;1.20;;;;;;;9.65;74.05;99022.81;5084395;28;20016;-64
2021/10/01 08:20:59;;;;;;;85.93;45.90;;;;;;;19.03;55.63;98975.50;5078382;28;20070;-64
2021/10/01 08:23:25;;;;;;;113.13;56.72;;;;;;;19.97;52.83;98973.47;5086723;28;20024;-64
2021/10/01 08:25:50;;;;;;;90.22;48.72;;;;;;;20.37;50.68;98973.13;5068241;28;20243;-64
2021/10/01 08:28:16;;;;;;;98.60;51.10;;;;;;;19.85;52.89;98966.94;5066568;28;20031;-64
2021/10/01 08:30:41;;;;;;;95.07;47.42;;;;;;;20.43;52.93;98971.00;5077065;28;20028;-64
2021/10/01 08:33:07;;;;;;;64.18;32.00;;;;;;;20.41;51.69;98970.22;5066054;28;20021;-64
2021/10/01 08:35:32;;;;;;;39.47;20.70;;;;;;;20.82;50.24;98963.47;5077870;28;20027;-64
2021/10/01 08:37:59;;;;;;;21.90;10.88;;;;;;;19.93;53.01;98964.72;5075517;28;20029;-64
2021/10/01 08:40:25;;;;;;;13.80;5.82;;;;;;;20.45;49.29;98958.44;5072612;28;20036;-64
2021/10/01 08:42:53;;;;;;;10.77;3.83;;;;;;;20.18;50.51;98957.22;5063731;28;20028;-64
2021/10/01 08:45:20;;;;;;;10.90;4.00;;;;;;;20.15;49.72;98946.69;5055033;28;20090;-64
2021/10/01 08:47:46;;;;;;;8.50;2.10;;;;;;;20.37;51.24;98951.72;5046237;28;20036;-64
2021/10/01 08:50:18;;;;;;;7.75;1.85;;;;;;;20.86;48.25;98948.13;5046317;28;20025;-64
2021/10/01 08:52:44;;;;;;;5.90;1.83;;;;;;;21.05;48.62;98944.38;5046463;28;20035;-64
2021/10/01 08:55:11;;;;;;;6.10;1.50;;;;;;;21.41;48.29;98951.25;5046140;28;20025;-64
2021/10/01 08:57:37;;;;;;;9.93;1.77;;;;;;;21.24;45.31;98945.03;5046065;28;20025;-64
2021/10/01 09:00:07;;;;;;;4.70;1.35;;;;;;;21.36;46.07;98947.97;5046709;28;20347;-64
2021/10/01 09:02:32;;;;;;;7.05;1.38;;;;;;;21.58;46.07;98964.53;5052002;28;20010;-64
2021/10/01 09:04:58;;;;;;;4.65;1.48;;;;;;;20.46;49.78;98954.78;5047762;28;20021;-64
2021/10/01 09:07:24;;;;;;;3.53;1.40;;;;;;;20.28;47.77;98950.41;5065908;28;20016;-64
2021/10/01 09:09:54;;;;;;;7.68;1.70;;;;;;;19.58;49.52;98952.31;5069722;28;20208;-64
2021/10/01 09:12:21;;;;;;;5.03;1.33;;;;;;;20.52;47.56;98948.25;5067212;28;20021;-64
2021/10/01 09:14:48;;;;;;;2.58;1.00;;;;;;;19.79;49.59;98943.22;5065527;28;20056;-64
2021/10/01 09:17:17;;;;;;;4.45;1.52;;;;;;;18.90;51.30;98942.34;5065247;28;20047;-64
2021/10/01 09:19:44;;;;;;;5.00;1.65;;;;;;;19.27;51.98;98941.47;5065019;28;20044;-64
2021/10/01 09:22:10;;;;;;;5.35;1.42;;;;;;;19.61;50.88;98943.31;5065440;28;20020;-64
2021/10/01 09:24:42;;;;;;;4.32;1.17;;;;;;;19.64;50.63;98938.66;5068373;28;20100;-64
2021/10/01 09:27:09;;;;;;;7.18;1.58;;;;;;;19.57;51.19;98937.25;5055192;28;20013;-64
2021/10/01 09:29:36;;;;;;;7.50;1.65;;;;;;;19.66;52.47;98934.13;5048296;28;20057;-64
2021/10/01 09:32:12;;;;;;;9.60;1.83;;;;;;;19.64;52.07;98935.97;5052010;28;20013;-64
2021/10/01 09:34:41;;;;;;;6.97;1.50;;;;;;;20.50;50.78;98929.59;5065673;28;20016;-64
2021/10/01 09:37:30;;;;;;;5.13;1.55;;;;;;;20.00;50.93;98928.72;5065271;28;20048;-64
2021/10/01 09:40:02;;;;;;;5.38;1.38;;;;;;;20.33;51.55;98918.97;5063843;28;20021;-64
2021/10/01 09:42:37;;;;;;;7.95;1.50;;;;;;;20.07;50.97;98919.47;5071951;28;20081;-64
2021/10/01 09:45:06;;;;;;;6.72;1.63;;;;;;;20.87;47.33;98907.91;5085205;28;20029;-64
2021/10/01 09:47:34;;;;;;;4.85;1.70;;;;;;;21.07;45.57;98915.69;5085100;28;20316;-64
2021/10/01 09:50:03;;;;;;;9.93;1.70;;;;;;;21.33;47.35;98905.31;5085066;28;20024;-64
2021/10/01 09:52:49;;;;;;;7.78;1.65;;;;;;;21.49;46.56;98892.75;5085022;28;20024;-64
2021/10/01 09:55:17;;;;;;;7.45;1.75;;;;;;;21.99;44.60;98904.00;5084972;28;20042;-64
2021/10/01 09:57:59;;;;;;;16.27;5.72;;;;;;;21.78;46.17;98899.94;5071053;28;20063;-64
2021/10/01 10:00:39;;;;;;;7.75;2.92;;;;;;;21.52;49.45;98897.91;5064800;28;20079;-64
2021/10/01 10:03:15;;;;;;;7.13;1.75;;;;;;;21.79;46.93;98894.47;5064765;28;20224;-64
2021/10/01 10:05:59;;;;;;;14.45;2.38;;;;;;;21.89;47.43;98889.44;5064766;28;20020;-64
2021/10/01 10:08:30;;;;;;;7.63;1.80;;;;;;;21.33;43.79;98878.53;5064763;28;20075;-64
2021/10/01 10:10:57;;;;;;;3.40;1.10;;;;;;;21.13;45.21;98883.22;5064709;28;20017;-64
2021/10/01 10:13:38;;;;;;;7.38;1.67;;;;;;;20.42;46.78;98878.38;5064422;28;20037;-64
2021/10/01 10:16:12;;;;;;;3.53;1.50;;;;;;;20.11;47.67;98872.91;5073309;28;20016;-64
2021/10/01 10:18:38;;;;;;;5.43;1.40;;;;;;;20.63;48.46;98866.47;5084507;28;20075;-64
2021/10/01 10:21:04;;;;;;;7.90;1.75;;;;;;;21.32;47.71;98864.25;5084389;28;20021;-64
2021/10/01 10:23:29;;;;;;;7.03;1.38;;;;;;;21.40;47.00;98869.16;5063572;28;20021;-64
2021/10/01 10:25:55;;;;;;;6.68;1.40;;;;;;;21.27;47.08;98856.50;5063067;28;20304;-65
2021/10/01 10:28:20;;;;;;;5.60;1.10;;;;;;;20.61;47.29;98852.34;5054536;28;20022;-65
2021/10/01 10:30:53;;;;;;;4.65;1.23;;;;;;;20.61;48.15;98855.00;5044019;28;20027;-65
2021/10/01 10:33:46;;;;;;;5.43;1.38;;;;;;;20.80;46.09;98858.38;5061841;28;20031;-65
2021/10/01 10:36:30;;;;;;;8.05;1.75;;;;;;;20.40;47.10;98853.50;5063722;28;20139;-65
2021/10/01 10:39:18;;;;;;;6.10;1.25;;;;;;;20.63;48.34;98850.41;5064453;28;20039;-65
2021/10/01 10:42:03;;;;;;;4.88;1.50;;;;;;;21.05;48.00;98850.69;5064326;28;20095;-65
2021/10/01 10:44:46;;;;;;;4.00;1.50;;;;;;;21.32;46.86;98855.38;5071197;28;20017;-65
2021/10/01 10:47:31;;;;;;;;;;;;;;;21.64;45.10;98843.63;5064446;28;20055;-64
2021/10/01 10:50:36;;;;;;;9.55;1.70;;;;;;;21.34;47.69;98832.91;5071844;28;19976;-65
2021/10/01 10:53:04;;;;;;;4.47;1.23;;;;;;;21.27;44.96;98832.41;5075263;28;20024;-65
2021/10/01 10:55:31;;;;;;;5.65;1.38;;;;;;;21.06;46.92;98822.97;5065650;28;20024;-65
2021/10/01 10:57:57;;;;;;;8.05;1.65;;;;;;;20.71;47.56;98820.56;5067136;28;20040;-65
2021/10/01 11:00:31;;;;;;;4.28;1.33;;;;;;;20.96;48.36;98811.09;5064685;28;20033;-65
2021/10/01 11:03:24;;;;;;;8.52;1.30;;;;;;;20.47;46.51;98812.13;5060385;28;20024;-65
2021/10/01 11:06:08;;;;;;;7.43;1.52;;;;;;;20.58;48.42;98804.38;5050769;28;20036;-65
2021/10/01 11:08:38;;;;;;;9.48;1.08;;;;;;;20.18;49.74;98807.53;5066058;28;20346;-65
2021/10/01 11:11:05;;;;;;;7.88;1.67;;;;;;;20.39;49.00;98811.69;5069193;28;20083;-63
2021/10/01 11:13:34;;;;;;;7.25;1.25;;;;;;;20.55;48.64;98803.66;5052206;28;20041;-64
2021/10/01 11:16:09;;;;;;;6.65;1.58;;;;;;;20.96;48.05;98795.03;5052136;28;20021;-64
2021/10/01 11:18:34;;;;;;;3.85;1.42;;;;;;;21.25;46.93;98788.81;5058014;28;20036;-64
2021/10/01 11:21:00;;;;;;;3.28;1.33;;;;;;;21.18;48.71;98800.84;5048829;28;20029;-64
2021/10/01 11:23:25;;;;;;;4.85;1.92;;;;;;;21.22;46.90;98786.31;5068113;28;20088;-64
2021/10/01 11:25:51;;;;;;;6.28;1.10;;;;;;;20.65;47.63;98778.09;5060131;28;20016;-64
2021/10/01 11:28:30;;;;;;;6.65;1.30;;;;;;;20.76;47.02;98779.22;5051171;28;20031;-63
2021/10/01 11:30:55;;;;;;;4.60;1.52;;;;;;;20.52;47.92;98756.56;5049287;28;20328;-64
2021/10/01 11:33:21;;;;;;;5.10;1.48;;;;;;;21.15;48.87;98758.19;5056086;28;20021;-64
2021/10/01 11:35:52;;;;;;;4.07;1.15;;;;;;;20.97;46.97;98755.72;5058331;28;20334;-64
2021/10/01 11:38:27;;;;;;;7.30;1.00;;;;;;;20.90;47.33;98752.53;5048904;28;20022;-64
2021/10/01 11:41:14;;;;;;;6.85;1.55;;;;;;;20.83;48.36;98745.81;5066746;28;20033;-64
2021/10/01 11:43:56;;;;;;;5.20;1.30;;;;;;;21.09;47.55;98755.00;5056905;28;20088;-64
2021/10/01 11:46:39;;;;;;;6.18;1.17;;;;;;;21.35;46.71;98743.59;5059623;28;20058;-64
2021/10/01 11:49:14;;;;;;;4.80;1.67;;;;;;;20.84;50.19;98742.19;5055452;28;20096;-64
2021/10/01 11:51:40;;;;;;;4.20;0.98;;;;;;;21.01;48.15;98747.44;5058742;28;20076;-64
2021/10/01 11:54:13;;;;;;;6.78;1.30;;;;;;;21.10;49.33;98738.84;5056399;28;20064;-64
2021/10/01 11:56:51;;;;;;;4.97;1.23;;;;;;;20.85;47.86;98735.03;5059563;28;20026;-64
2021/10/01 11:59:17;;;;;;;2.90;1.00;;;;;;;20.62;48.44;98728.34;5055534;28;20024;-64
2021/10/01 12:01:57;;;;;;;3.80;1.15;;;;;;;20.72;49.79;98721.50;5061166;28;20094;-64
2021/10/01 12:04:33;;;;;;;2.17;0.90;;;;;;;20.79;48.67;98722.84;5055704;28;20021;-64
2021/10/01 12:07:04;;;;;;;3.97;1.08;;;;;;;20.73;50.39;98720.53;5053449;28;20032;-64
2021/10/01 12:09:30;;;;;;;2.63;0.80;;;;;;;20.83;47.22;98724.41;5057053;28;20017;-64
2021/10/01 12:11:55;;;;;;;11.30;1.50;;;;;;;20.57;48.09;98711.69;5054604;28;20032;-64
2021/10/01 12:14:21;;;;;;;2.78;1.13;;;;;;;20.22;48.26;98710.19;5054478;28;20047;-64
2021/10/01 12:16:58;;;;;;;2.13;0.98;;;;;;;20.23;48.63;98701.22;5054835;28;20032;-64
2021/10/01 12:19:25;;;;;;;3.42;1.30;;;;;;;20.23;49.13;98695.88;5048091;28;20033;-64
2021/10/01 12:22:04;;;;;;;2.03;0.93;;;;;;;20.13;51.42;98694.69;5051597;28;20355;-64
2021/10/01 12:24:47;;;;;;;5.82;1.25;;;;;;;20.14;51.92;98685.72;5047270;28;20052;-64
2021/10/01 12:27:13;;;;;;;4.18;1.20;;;;;;;20.06;50.19;98685.22;5058321;28;20265;-64
2021/10/01 12:29:51;;;;;;;6.00;1.08;;;;;;;19.94;50.25;98688.63;5055313;28;20321;-64
2021/10/01 12:32:18;;;;;;;3.50;0.93;;;;;;;19.81;51.21;98681.38;5056317;28;20021;-64
2021/10/01 12:34:56;;;;;;;4.97;1.13;;;;;;;19.74;51.49;98680.00;5056790;28;20132;-64
2021/10/01 12:37:24;;;;;;;3.17;1.20;;;;;;;19.81;51.16;98687.59;5048338;28;20084;-64
2021/10/01 12:39:56;;;;;;;4.30;1.05;;;;;;;19.62;52.25;98686.00;5058247;28;20017;-64
2021/10/01 12:42:28;;;;;;;5.22;1.42;;;;;;;19.56;51.72;98676.53;5058373;28;20070;-64
2021/10/01 12:45:06;;;;;;;5.25;1.10;;;;;;;19.44;51.16;98684.31;5047039;28;20128;-64
2021/10/01 12:47:33;;;;;;;5.25;1.38;;;;;;;19.42;53.28;98679.06;5059479;28;20025;-64
2021/10/01 12:50:01;;;;;;;5.72;1.30;;;;;;;19.35;52.82;98672.34;5058432;28;20021;-64
2021/10/01 12:52:28;;;;;;;5.10;0.93;;;;;;;19.26;52.73;98675.50;5052660;28;20056;-64
2021/10/01 12:55:04;;;;;;;8.55;2.00;;;;;;;19.31;55.35;98669.91;5052966;28;20032;-64
2021/10/01 12:57:29;;;;;;;3.92;1.05;;;;;;;19.45;53.52;98667.38;5053727;28;20025;-64
2021/10/01 13:00:03;;;;;;;6.25;1.33;;;;;;;19.27;53.59;98661.22;5059158;28;20063;-64
2021/10/01 13:02:39;;;;;;;4.95;1.63;;;;;;;18.98;52.84;98664.50;5047369;28;20017;-65
2021/10/01 13:05:07;;;;;;;2.50;1.05;;;;;;;19.03;54.49;98670.47;5059508;28;20079;-64
2021/10/01 13:07:35;;;;;;;7.57;1.30;;;;;;;19.09;55.31;98655.03;5054347;28;20194;-64
2021/10/01 13:10:12;;;;;;;7.95;0.98;;;;;;;19.16;55.12;98642.19;5059271;28;20020;-64
2021/10/01 13:12:46;;;;;;;3.45;0.98;;;;;;;19.13;53.45;98645.03;5056716;28;20033;-64
2021/10/01 13:15:21;;;;;;;3.40;1.05;;;;;;;19.07;53.30;98640.03;5054172;28;20378;-64
2021/10/01 13:18:09;;;;;;;6.13;0.95;;;;;;;19.15;55.11;98638.66;5053770;28;20062;-64